createdAt,value
2022-07-29T08:44:49.730Z,32.89
2022-07-29T08:46:52.712Z,32.89
2022-07-29T08:48:56.459Z,33.13
2022-07-29T08:50:59.034Z,32.80
2022-07-29T08:53:03.061Z,32.95
2022-07-29T08:55:07.213Z,32.59
2022-07-29T08:57:13.482Z,31.99
2022-07-29T08:59:19.895Z,32.41
2022-07-29T09:01:36.107Z,31.80
2022-07-29T09:03:47.143Z,31.57
2022-07-29T09:05:50.391Z,30.95
2022-07-29T09:07:53.281Z,30.95
2022-07-29T09:09:56.095Z,30.72
2022-07-29T09:12:00.587Z,30.48
2022-07-29T09:14:02.949Z,30.86
2022-07-29T09:16:09.175Z,30.77
2022-07-29T09:18:19.789Z,29.89
2022-07-29T09:20:56.383Z,30.33
2022-07-29T09:23:09.254Z,30.33
2022-07-29T09:25:13.436Z,29.82
2022-07-29T09:27:30.000Z,29.40
2022-07-29T09:29:36.133Z,29.13
2022-07-29T09:31:41.949Z,29.57
2022-07-29T09:33:44.323Z,29.37
2022-07-29T09:35:56.383Z,29.46
2022-07-29T09:38:11.639Z,29.21
2022-07-29T09:40:22.009Z,28.45
2022-07-29T09:42:31.063Z,28.71
2022-07-29T09:44:44.028Z,28.40
2022-07-29T09:47:08.291Z,28.35
2022-07-29T09:49:15.286Z,28.59
2022-07-29T09:51:26.950Z,28.51
2022-07-29T09:53:40.932Z,28.86
2022-07-29T09:56:02.306Z,28.71
2022-07-29T09:58:22.370Z,28.20
2022-07-29T10:00:26.468Z,26.44
2022-07-29T10:02:34.740Z,26.69
2022-07-29T10:04:43.728Z,26.89
2022-07-29T10:07:05.221Z,26.86
2022-07-29T10:09:10.302Z,25.83
2022-07-29T10:11:17.976Z,25.85
2022-07-29T10:13:20.658Z,25.34
2022-07-29T10:15:25.584Z,25.38
2022-07-29T10:17:27.978Z,25.11
2022-07-29T10:19:31.979Z,25.39
2022-07-29T10:21:36.618Z,25.16
2022-07-29T10:23:46.503Z,24.22
2022-07-29T10:25:50.466Z,24.02
2022-07-29T10:27:54.279Z,23.78
2022-07-29T10:29:56.581Z,23.69
2022-07-29T10:32:23.712Z,23.66
2022-07-29T10:34:46.319Z,23.58
2022-07-29T10:37:01.431Z,22.82
2022-07-29T10:39:15.476Z,22.03
2022-07-29T10:41:32.259Z,22.22
2022-07-29T10:43:48.306Z,22.07
2022-07-29T10:45:58.293Z,22.11
2022-07-29T10:48:08.023Z,22.48
2022-07-29T10:50:15.243Z,22.09
2022-07-29T10:52:20.858Z,21.55
2022-07-29T10:54:43.798Z,20.71
2022-07-29T10:56:46.729Z,20.88
2022-07-29T11:01:51.308Z,19.87
2022-07-29T11:03:57.611Z,20.14
2022-07-29T11:06:00.184Z,20.02
2022-07-29T11:08:19.983Z,20.10
2022-07-29T11:12:48.464Z,19.58
2022-07-29T11:14:57.164Z,19.68
2022-07-29T11:17:07.433Z,20.28
2022-07-29T11:19:13.167Z,20.84
2022-07-29T11:21:53.965Z,20.62
2022-07-29T11:24:18.547Z,20.38
2022-07-29T11:26:26.281Z,20.35
2022-07-29T11:28:30.825Z,20.38
2022-07-29T11:30:51.543Z,19.73
2022-07-29T11:32:54.252Z,18.28
2022-07-29T11:35:37.344Z,16.94
2022-07-29T11:37:42.464Z,16.19
2022-07-29T11:39:48.684Z,15.79
2022-07-29T11:41:51.212Z,17.66
2022-07-29T11:44:00.880Z,19.51
2022-07-29T11:46:04.556Z,19.23
2022-07-29T11:50:44.291Z,18.46
2022-07-29T11:52:50.011Z,19.17
2022-07-29T11:57:17.787Z,20.79
2022-07-29T11:59:21.192Z,20.77
2022-07-29T12:01:25.596Z,21.06
2022-07-29T12:03:34.778Z,20.43
2022-07-29T12:05:48.178Z,20.25
2022-07-29T12:07:03.797Z,17.48
2022-07-29T12:07:51.003Z,19.87
2022-07-29T12:09:56.902Z,20.33
2022-07-29T12:12:04.926Z,21.07
2022-07-29T12:14:08.031Z,21.60
2022-07-29T12:16:10.891Z,20.82
2022-07-29T12:18:24.090Z,19.33
2022-07-29T12:20:29.244Z,15.02
2022-07-29T12:22:38.341Z,13.47
2022-07-29T12:24:45.764Z,12.84
2022-07-29T12:26:57.257Z,12.19
2022-07-29T12:28:59.914Z,12.19
2022-07-29T12:31:06.206Z,11.76
2022-07-29T12:33:24.501Z,12.00
2022-07-29T12:35:27.323Z,10.34
2022-07-29T12:37:40.758Z,10.42
2022-07-29T12:39:45.061Z,10.71
2022-07-29T12:41:47.733Z,8.98
2022-07-29T12:43:54.951Z,9.97
2022-07-29T12:45:58.519Z,10.67
2022-07-29T12:48:01.118Z,11.76
2022-07-29T12:50:22.070Z,10.76
2022-07-29T12:52:32.070Z,9.64
2022-07-29T12:54:34.863Z,10.21
2022-07-29T12:56:43.294Z,10.00
2022-07-29T12:58:50.966Z,11.52
2022-07-29T13:01:18.078Z,11.16
2022-07-29T13:03:20.462Z,13.30
2022-07-29T13:05:23.302Z,13.01
2022-07-29T13:07:55.562Z,13.68
2022-07-29T13:09:50.697Z,14.19
2022-07-29T13:11:54.498Z,14.53
2022-07-29T13:14:06.535Z,14.73
2022-07-29T13:16:09.793Z,14.95
2022-07-29T13:18:32.215Z,15.05
2022-07-29T13:20:35.251Z,14.38
2022-07-29T13:22:37.591Z,13.71
2022-07-29T13:24:57.008Z,13.14
2022-07-29T13:27:00.484Z,13.91
2022-07-29T13:29:02.894Z,13.11
2022-07-29T13:31:06.179Z,12.88
2022-07-29T13:33:08.926Z,13.62
2022-07-29T13:35:11.287Z,14.07
2022-07-29T13:37:13.675Z,14.25
2022-07-29T13:39:16.401Z,14.06
2022-07-29T13:41:18.735Z,15.19
2022-07-29T13:43:21.772Z,15.11
2022-07-29T13:45:24.385Z,15.42
2022-07-29T13:47:32.702Z,15.68
2022-07-29T13:49:35.762Z,16.39
2022-07-29T13:51:39.113Z,16.42
2022-07-29T13:53:41.430Z,16.57
2022-07-29T13:55:43.800Z,16.35
2022-07-29T13:57:46.700Z,16.53
2022-07-29T13:59:53.730Z,16.06
2022-07-29T14:01:56.955Z,16.07
2022-07-29T14:03:59.769Z,15.96
2022-07-29T14:06:03.100Z,16.14
2022-07-29T14:08:05.464Z,16.54
2022-07-29T14:10:08.717Z,17.49
2022-07-29T14:12:18.945Z,17.02
2022-07-29T14:14:22.164Z,17.64
2022-07-29T14:16:24.858Z,18.08
2022-07-29T14:18:27.280Z,17.43
2022-07-29T14:20:30.914Z,17.50
2022-07-29T14:22:37.813Z,17.62
2022-07-29T14:24:44.221Z,17.67
2022-07-29T14:26:46.798Z,17.62
2022-07-29T14:28:50.949Z,17.89
2022-07-29T14:30:53.340Z,17.95
2022-07-29T14:32:55.791Z,17.77
2022-07-29T14:34:58.509Z,17.78
2022-07-29T14:37:00.961Z,17.47
2022-07-29T14:39:03.660Z,17.26
2022-07-29T14:41:07.112Z,17.53
2022-07-29T14:43:09.507Z,17.38
2022-07-29T14:45:11.973Z,17.26
2022-07-29T14:47:14.577Z,17.70
2022-07-29T14:49:17.005Z,17.82
2022-07-29T14:51:19.515Z,17.88
2022-07-29T14:53:22.480Z,18.02
2022-07-29T14:55:25.297Z,18.24
2022-07-29T14:57:27.860Z,18.01
2022-07-29T14:59:30.850Z,18.13
2022-07-29T15:01:33.344Z,17.91
2022-07-29T15:03:35.860Z,17.57
2022-07-29T15:05:39.351Z,17.35
2022-07-29T15:07:41.737Z,17.42
2022-07-29T15:09:49.338Z,17.54
2022-07-29T15:11:52.931Z,17.34
2022-07-29T15:13:55.361Z,17.80
2022-07-29T15:16:00.214Z,17.38
2022-07-29T15:18:03.381Z,17.44
2022-07-29T15:20:06.691Z,17.39
2022-07-29T15:22:09.119Z,16.92
2022-07-29T15:24:11.792Z,17.27
2022-07-29T15:26:14.170Z,17.88
2022-07-29T15:28:16.569Z,18.04
2022-07-29T15:30:32.509Z,18.25
2022-07-29T15:32:36.259Z,18.76
2022-07-29T15:34:39.378Z,18.75
2022-07-29T15:36:51.907Z,18.44
2022-07-29T15:38:55.975Z,18.71
2022-07-29T15:40:58.336Z,18.78
2022-07-29T15:43:06.769Z,19.15
2022-07-29T15:45:10.003Z,19.46
2022-07-29T15:47:12.368Z,19.56
2022-07-29T15:49:15.105Z,19.50
2022-07-29T15:51:17.501Z,19.30
2022-07-29T15:53:19.924Z,19.42
2022-07-29T15:55:22.652Z,19.49
2022-07-29T15:57:25.520Z,19.56
2022-07-29T15:59:28.038Z,19.38
2022-07-29T16:01:30.840Z,19.54
2022-07-29T16:03:33.581Z,19.49
2022-07-29T16:05:36.035Z,19.91
2022-07-29T16:07:39.980Z,19.86
2022-07-29T16:09:44.858Z,19.85
2022-07-29T16:11:53.959Z,19.93
2022-07-29T16:13:56.348Z,19.90
2022-07-29T16:16:02.167Z,20.23
2022-07-29T16:18:05.772Z,20.34
2022-07-29T16:20:08.738Z,20.50
2022-07-29T16:22:13.741Z,20.36
2022-07-29T16:24:16.193Z,20.23
2022-07-29T16:26:19.729Z,20.14
2022-07-29T16:28:22.489Z,20.36
2022-07-29T16:30:25.050Z,20.50
2022-07-29T16:32:27.651Z,20.52
2022-07-29T16:34:30.303Z,20.58
2022-07-29T16:36:32.983Z,20.61
2022-07-29T16:38:36.402Z,20.72
2022-07-29T16:40:49.802Z,20.59
2022-07-29T16:42:54.766Z,20.69
2022-07-29T16:44:57.116Z,20.46
2022-07-29T16:47:00.479Z,20.48
2022-07-29T16:49:04.441Z,20.40
2022-07-29T16:51:07.824Z,20.80
2022-07-29T16:53:10.995Z,20.53
2022-07-29T16:55:13.457Z,20.38
2022-07-29T16:57:16.226Z,20.56
2022-07-29T16:59:18.849Z,20.67
2022-07-29T17:01:21.326Z,20.57
2022-07-29T17:03:23.704Z,20.59
2022-07-29T17:05:27.786Z,20.97
2022-07-29T17:07:30.115Z,21.45
2022-07-29T17:09:32.694Z,21.49
2022-07-29T17:11:52.780Z,20.85
2022-07-29T17:13:58.610Z,20.80
2022-07-29T17:16:01.315Z,20.82
2022-07-29T17:18:12.727Z,20.82
2022-07-29T17:20:17.586Z,20.93
2022-07-29T17:22:20.305Z,21.28
2022-07-29T17:24:22.976Z,21.07
2022-07-29T17:26:30.529Z,21.24
2022-07-29T17:28:32.994Z,21.23
2022-07-29T17:30:35.709Z,21.45
2022-07-29T17:32:40.686Z,21.50
2022-07-29T17:34:43.449Z,21.75
2022-07-29T17:36:46.194Z,21.59
2022-07-29T17:38:48.632Z,21.76
2022-07-29T17:40:50.944Z,21.92
2022-07-29T17:42:53.585Z,22.19
2022-07-29T17:44:55.880Z,22.29
2022-07-29T17:46:58.652Z,22.17
2022-07-29T17:49:01.590Z,22.51
2022-07-29T17:51:04.269Z,22.40
2022-07-29T17:53:09.569Z,22.22
2022-07-29T17:55:18.982Z,22.51
2022-07-29T17:57:21.398Z,22.31
2022-07-29T17:59:24.031Z,22.63
2022-07-29T18:01:26.704Z,22.84
2022-07-29T18:03:30.444Z,22.79
2022-07-29T18:05:33.436Z,22.75
2022-07-29T18:07:35.748Z,22.84
2022-07-29T18:09:38.588Z,22.76
2022-07-29T18:11:40.938Z,22.92
2022-07-29T18:13:46.970Z,23.13
2022-07-29T18:15:50.036Z,23.37
2022-07-29T18:17:57.352Z,23.28
2022-07-29T18:20:00.363Z,23.44
2022-07-29T18:22:05.327Z,23.46
2022-07-29T18:24:08.418Z,23.55
2022-07-29T18:26:10.904Z,23.67
2022-07-29T18:28:13.670Z,23.75
2022-07-29T18:30:16.561Z,24.04
2022-07-29T18:32:19.501Z,24.36
2022-07-29T18:34:32.142Z,24.13
2022-07-29T18:36:34.588Z,24.26
2022-07-29T18:38:36.938Z,24.45
2022-07-29T18:40:42.046Z,24.62
2022-07-29T18:42:44.390Z,24.16
2022-07-29T18:44:49.042Z,24.55
2022-07-29T18:46:52.519Z,24.60
2022-07-29T18:48:57.327Z,25.01
2022-07-29T18:50:59.892Z,24.77
2022-07-29T18:53:04.360Z,24.36
2022-07-29T18:55:07.824Z,24.62
2022-07-29T18:57:55.051Z,24.69
2022-07-29T18:59:34.596Z,24.05
2022-07-29T19:01:38.087Z,23.79
2022-07-29T19:03:40.542Z,24.00
2022-07-29T19:05:43.326Z,24.59
2022-07-29T19:07:45.657Z,25.05
2022-07-29T19:09:49.307Z,25.52
2022-07-29T19:11:55.980Z,25.46
2022-07-29T19:13:59.145Z,25.82
2022-07-29T19:16:01.587Z,26.07
2022-07-29T19:18:04.711Z,26.42
2022-07-29T19:20:07.999Z,26.65
2022-07-29T19:22:10.353Z,26.60
2022-07-29T19:24:15.552Z,27.12
2022-07-29T19:26:20.628Z,27.20
2022-07-29T19:28:23.305Z,28.07
2022-07-29T19:30:25.964Z,27.98
2022-07-29T19:32:28.344Z,28.02
2022-07-29T19:34:30.871Z,28.23
2022-07-29T19:36:33.808Z,28.37
2022-07-29T19:38:39.495Z,28.75
2022-07-29T19:40:41.875Z,28.64
2022-07-29T19:42:44.966Z,29.14
2022-07-29T19:44:47.342Z,28.70
2022-07-29T19:46:49.759Z,28.95
2022-07-29T19:48:53.607Z,29.11
2022-07-29T19:50:55.992Z,29.11
2022-07-29T19:52:59.240Z,29.62
2022-07-29T19:55:07.753Z,29.72
2022-07-29T19:57:10.400Z,30.03
2022-07-29T19:59:13.014Z,30.33
2022-07-29T20:01:17.127Z,30.48
2022-07-29T20:03:19.745Z,30.42
2022-07-29T20:05:22.175Z,30.62
2022-07-29T20:07:30.617Z,30.88
2022-07-29T20:09:33.923Z,30.93
2022-07-29T20:11:37.656Z,30.91
2022-07-29T20:13:40.186Z,31.02
2022-07-29T20:15:42.893Z,31.03
2022-07-29T20:17:45.428Z,31.35
2022-07-29T20:19:49.921Z,31.41
2022-07-29T20:21:52.918Z,32.04
2022-07-29T20:23:56.857Z,32.20
2022-07-29T20:25:59.276Z,32.23
2022-07-29T20:28:01.901Z,32.51
2022-07-29T20:30:05.307Z,32.47
2022-07-29T20:32:08.969Z,32.88
2022-07-29T20:34:11.769Z,32.97
2022-07-29T20:36:14.492Z,33.37
2022-07-29T20:38:18.496Z,33.23
2022-07-29T20:40:21.243Z,33.60
2022-07-29T20:42:23.793Z,34.06
2022-07-29T20:44:26.136Z,34.16
2022-07-29T20:46:28.931Z,34.23
2022-07-29T20:48:31.372Z,33.92
2022-07-29T20:50:33.750Z,34.04
2022-07-29T20:52:36.624Z,34.47
2022-07-29T20:54:39.012Z,34.59
2022-07-29T20:56:41.673Z,34.48
2022-07-29T20:58:44.395Z,34.37
2022-07-29T21:00:47.018Z,34.15
2022-07-29T21:02:49.438Z,34.29
2022-07-29T21:04:52.165Z,34.50
2022-07-29T21:06:54.534Z,34.62
2022-07-29T21:08:58.048Z,34.96
2022-07-29T21:11:01.091Z,34.85
2022-07-29T21:13:03.649Z,35.70
2022-07-29T21:15:06.693Z,36.21
2022-07-29T21:17:10.401Z,36.63
2022-07-29T21:19:12.779Z,36.34
2022-07-29T21:21:16.646Z,36.77
2022-07-29T21:23:19.271Z,37.55
2022-07-29T21:25:22.910Z,37.61
2022-07-29T21:27:43.970Z,37.59
2022-07-29T21:29:46.759Z,37.43
2022-07-29T21:31:49.073Z,37.29
2022-07-29T21:33:51.386Z,37.61
2022-07-29T21:38:18.352Z,38.07
2022-07-29T21:40:20.981Z,38.62
2022-07-29T21:42:23.665Z,38.17
2022-07-29T21:44:26.944Z,38.33
2022-07-29T21:46:29.761Z,38.37
2022-07-29T21:48:32.495Z,38.81
2022-07-29T21:50:35.690Z,38.85
2022-07-29T21:52:38.982Z,39.14
2022-07-29T21:54:42.774Z,39.23
2022-07-29T21:56:45.819Z,39.71
2022-07-29T21:58:53.670Z,39.81
2022-07-29T22:00:56.521Z,40.15
2022-07-29T22:02:59.446Z,39.98
2022-07-29T22:05:01.764Z,39.98
2022-07-29T22:07:04.445Z,39.99
